sensor_id;sensor_type;location;lat;lon;timestamp;pressure;altitude;pressure_sealevel;temperature;humidity
83551;BME280;74617;47.082;15.524;2023-12-20T00:00:50;96507.41;;;19.70;39.56
83551;BME280;74617;47.082;15.524;2023-12-20T00:03:16;96504.19;;;19.67;39.72
83551;BME280;74617;47.082;15.524;2023-12-20T00:05:42;96494.88;;;19.68;39.59
83551;BME280;74617;47.082;15.524;2023-12-20T00:08:07;96493.28;;;19.67;39.51
83551;BME280;74617;47.082;15.524;2023-12-20T00:10:32;96486.25;;;19.66;39.61
83551;BME280;74617;47.082;15.524;2023-12-20T00:12:58;96485.47;;;19.66;39.82
83551;BME280;74617;47.082;15.524;2023-12-20T00:15:23;96481.16;;;19.65;39.85
83551;BME280;74617;47.082;15.524;2023-12-20T00:17:48;96482.28;;;19.64;39.87
83551;BME280;74617;47.082;15.524;2023-12-20T00:20:14;96475.25;;;19.63;39.73
83551;BME280;74617;47.082;15.524;2023-12-20T00:22:39;96468.97;;;19.62;39.86
83551;BME280;74617;47.082;15.524;2023-12-20T00:25:05;96463.53;;;19.62;39.87
83551;BME280;74617;47.082;15.524;2023-12-20T00:27:30;96464.66;;;19.61;39.71
83551;BME280;74617;47.082;15.524;2023-12-20T00:29:55;96454.91;;;19.60;40.02
83551;BME280;74617;47.082;15.524;2023-12-20T00:32:21;96454.09;;;19.60;39.32
83551;BME280;74617;47.082;15.524;2023-12-20T00:34:46;96450.94;;;19.58;40.04
83551;BME280;74617;47.082;15.524;2023-12-20T00:37:11;96448.22;;;19.58;39.94
83551;BME280;74617;47.082;15.524;2023-12-20T00:39:37;96449.00;;;19.58;39.74
83551;BME280;74617;47.082;15.524;2023-12-20T00:42:02;96451.25;;;19.56;40.02
83551;BME280;74617;47.082;15.524;2023-12-20T00:44:28;96448.53;;;19.56;39.57
83551;BME280;74617;47.082;15.524;2023-12-20T00:46:53;96436.00;;;19.55;39.93
83551;BME280;74617;47.082;15.524;2023-12-20T00:49:18;96431.69;;;19.54;39.98
83551;BME280;74617;47.082;15.524;2023-12-20T00:51:44;96430.13;;;19.53;39.88
83551;BME280;74617;47.082;15.524;2023-12-20T00:54:09;96428.53;;;19.52;39.93
83551;BME280;74617;47.082;15.524;2023-12-20T00:56:35;96425.00;;;19.52;39.88
83551;BME280;74617;47.082;15.524;2023-12-20T00:59:00;96417.19;;;19.50;39.98
83551;BME280;74617;47.082;15.524;2023-12-20T01:01:26;96414.47;;;19.50;40.14
83551;BME280;74617;47.082;15.524;2023-12-20T01:03:51;96412.88;;;19.49;39.88
83551;BME280;74617;47.082;15.524;2023-12-20T01:06:17;96416.72;;;19.48;39.91
83551;BME280;74617;47.082;15.524;2023-12-20T01:08:42;96415.91;;;19.48;40.01
83551;BME280;74617;47.082;15.524;2023-12-20T01:11:07;96412.41;;;19.47;39.98
83551;BME280;74617;47.082;15.524;2023-12-20T01:13:33;96408.09;;;19.46;40.10
83551;BME280;74617;47.082;15.524;2023-12-20T01:15:58;96415.13;;;19.47;40.10
83551;BME280;74617;47.082;15.524;2023-12-20T01:18:25;96411.94;;;19.45;39.86
83551;BME280;74617;47.082;15.524;2023-12-20T01:20:50;96420.13;;;19.45;40.14
83551;BME280;74617;47.082;15.524;2023-12-20T01:23:16;96417.41;;;19.45;40.06
83551;BME280;74617;47.082;15.524;2023-12-20T01:25:41;96415.03;;;19.44;40.01
83551;BME280;74617;47.082;15.524;2023-12-20T01:28:06;96410.72;;;19.43;40.20
83551;BME280;74617;47.082;15.524;2023-12-20T01:30:32;96407.16;;;19.42;40.05
83551;BME280;74617;47.082;15.524;2023-12-20T01:32:59;96407.50;;;19.40;40.20
83551;BME280;74617;47.082;15.524;2023-12-20T01:35:24;96396.63;;;19.40;40.30
83551;BME280;74617;47.082;15.524;2023-12-20T01:37:50;96411.03;;;19.41;40.21
83551;BME280;74617;47.082;15.524;2023-12-20T01:40:15;96402.84;;;19.41;40.09
83551;BME280;74617;47.082;15.524;2023-12-20T01:42:41;96407.50;;;19.40;40.27
83551;BME280;74617;47.082;15.524;2023-12-20T01:45:08;96396.97;;;19.39;40.12
83551;BME280;74617;47.082;15.524;2023-12-20T01:47:33;96399.69;;;19.39;40.13
83551;BME280;74617;47.082;15.524;2023-12-20T01:49:59;96389.94;;;19.38;40.23
83551;BME280;74617;47.082;15.524;2023-12-20T01:52:25;96388.34;;;19.37;40.36
83551;BME280;74617;47.082;15.524;2023-12-20T01:54:51;96382.41;;;19.35;40.22
83551;BME280;74617;47.082;15.524;2023-12-20T01:57:17;96383.25;;;19.35;40.31
83551;BME280;74617;47.082;15.524;2023-12-20T01:59:43;96375.38;;;19.34;40.36
83551;BME280;74617;47.082;15.524;2023-12-20T02:02:09;96366.06;;;19.35;40.49
83551;BME280;74617;47.082;15.524;2023-12-20T02:04:37;96357.44;;;19.33;40.35
83551;BME280;74617;47.082;15.524;2023-12-20T02:07:02;96362.91;;;19.33;40.40
83551;BME280;74617;47.082;15.524;2023-12-20T02:09:28;96353.16;;;19.32;40.38
83551;BME280;74617;47.082;15.524;2023-12-20T02:11:54;96352.34;;;19.31;40.32
83551;BME280;74617;47.082;15.524;2023-12-20T02:14:19;96343.38;;;19.31;40.24
83551;BME280;74617;47.082;15.524;2023-12-20T02:16:45;96339.88;;;19.30;40.25
83551;BME280;74617;47.082;15.524;2023-12-20T02:19:14;96333.16;;;19.28;40.23
83551;BME280;74617;47.082;15.524;2023-12-20T02:21:40;96332.06;;;19.29;40.37
83551;BME280;74617;47.082;15.524;2023-12-20T02:24:06;96329.66;;;19.27;40.33
83551;BME280;74617;47.082;15.524;2023-12-20T02:26:34;96330.44;;;19.28;40.54
83551;BME280;74617;47.082;15.524;2023-12-20T02:29:00;96327.72;;;19.28;40.38
83551;BME280;74617;47.082;15.524;2023-12-20T02:31:25;96315.22;;;19.27;40.58
83551;BME280;74617;47.082;15.524;2023-12-20T02:33:51;96314.44;;;19.26;40.48
83551;BME280;74617;47.082;15.524;2023-12-20T02:36:16;96312.06;;;19.25;40.26
83551;BME280;74617;47.082;15.524;2023-12-20T02:38:42;96307.41;;;19.25;40.14
83551;BME280;74617;47.082;15.524;2023-12-20T02:41:07;96300.38;;;19.24;40.43
83551;BME280;74617;47.082;15.524;2023-12-20T02:43:32;96296.88;;;19.24;40.51
83551;BME280;74617;47.082;15.524;2023-12-20T02:45:58;96289.84;;;19.23;40.49
83551;BME280;74617;47.082;15.524;2023-12-20T02:48:23;96289.03;;;19.22;40.56
83551;BME280;74617;47.082;15.524;2023-12-20T02:50:48;96276.53;;;19.21;40.61
83551;BME280;74617;47.082;15.524;2023-12-20T02:53:14;96275.75;;;19.21;40.53
83551;BME280;74617;47.082;15.524;2023-12-20T02:55:40;96272.22;;;19.20;40.37
83551;BME280;74617;47.082;15.524;2023-12-20T02:58:05;96282.31;;;19.20;40.58
83551;BME280;74617;47.082;15.524;2023-12-20T03:00:31;96262.47;;;19.19;40.49
83551;BME280;74617;47.082;15.524;2023-12-20T03:02:56;96258.16;;;19.18;40.51
83551;BME280;74617;47.082;15.524;2023-12-20T03:05:21;96253.50;;;19.19;40.56
83551;BME280;74617;47.082;15.524;2023-12-20T03:07:47;96251.94;;;19.18;40.67
83551;BME280;74617;47.082;15.524;2023-12-20T03:10:12;96248.06;;;19.19;40.49
83551;BME280;74617;47.082;15.524;2023-12-20T03:12:38;96242.16;;;19.17;40.52
83551;BME280;74617;47.082;15.524;2023-12-20T03:15:03;96241.38;;;19.16;40.66
83551;BME280;74617;47.082;15.524;2023-12-20T03:17:29;96242.53;;;19.15;40.48
83551;BME280;74617;47.082;15.524;2023-12-20T03:19:54;96243.31;;;19.16;40.65
83551;BME280;74617;47.082;15.524;2023-12-20T03:22:20;96234.34;;;19.15;40.39
83551;BME280;74617;47.082;15.524;2023-12-20T03:24:45;96225.72;;;19.13;40.43
83551;BME280;74617;47.082;15.524;2023-12-20T03:27:10;96234.66;;;19.13;40.56
83551;BME280;74617;47.082;15.524;2023-12-20T03:29:36;96222.19;;;19.12;40.44
83551;BME280;74617;47.082;15.524;2023-12-20T03:32:01;96222.19;;;19.12;40.89
83551;BME280;74617;47.082;15.524;2023-12-20T03:34:27;96224.13;;;19.12;40.46
83551;BME280;74617;47.082;15.524;2023-12-20T03:36:54;96227.19;;;19.10;40.69
83551;BME280;74617;47.082;15.524;2023-12-20T03:39:19;96229.94;;;19.10;40.78
83551;BME280;74617;47.082;15.524;2023-12-20T03:41:44;96226.41;;;19.10;40.61
83551;BME280;74617;47.082;15.524;2023-12-20T03:44:10;96220.16;;;19.09;40.70
83551;BME280;74617;47.082;15.524;2023-12-20T03:46:35;96225.97;;;19.08;40.59
83551;BME280;74617;47.082;15.524;2023-12-20T03:49:00;96220.53;;;19.08;40.72
83551;BME280;74617;47.082;15.524;2023-12-20T03:51:26;96229.00;;;19.06;40.64
83551;BME280;74617;47.082;15.524;2023-12-20T03:53:51;96216.97;;;19.07;40.55
83551;BME280;74617;47.082;15.524;2023-12-20T03:56:16;96228.22;;;19.06;40.80
83551;BME280;74617;47.082;15.524;2023-12-20T03:58:42;96221.63;;;19.07;40.71
83551;BME280;74617;47.082;15.524;2023-12-20T04:01:10;96218.13;;;19.06;40.64
83551;BME280;74617;47.082;15.524;2023-12-20T04:03:38;96219.69;;;19.07;40.49
83551;BME280;74617;47.082;15.524;2023-12-20T04:06:03;96219.69;;;19.07;40.60
83551;BME280;74617;47.082;15.524;2023-12-20T04:08:29;96215.88;;;19.08;40.62
83551;BME280;74617;47.082;15.524;2023-12-20T04:10:54;96226.41;;;19.10;40.66
83551;BME280;74617;47.082;15.524;2023-12-20T04:13:19;96221.75;;;19.10;40.63
83551;BME280;74617;47.082;15.524;2023-12-20T04:15:45;96226.41;;;19.10;40.84
83551;BME280;74617;47.082;15.524;2023-12-20T04:18:10;96224.47;;;19.10;40.64
83551;BME280;74617;47.082;15.524;2023-12-20T04:20:35;96225.28;;;19.11;40.52
83551;BME280;74617;47.082;15.524;2023-12-20T04:23:01;96219.81;;;19.11;40.52
83551;BME280;74617;47.082;15.524;2023-12-20T04:25:26;96221.75;;;19.10;40.39
83551;BME280;74617;47.082;15.524;2023-12-20T04:27:51;96216.31;;;19.10;40.54
83551;BME280;74617;47.082;15.524;2023-12-20T04:30:17;96212.78;;;19.10;40.50
83551;BME280;74617;47.082;15.524;2023-12-20T04:32:42;96213.59;;;19.10;40.72
83551;BME280;74617;47.082;15.524;2023-12-20T04:35:08;96207.34;;;19.10;40.51
83551;BME280;74617;47.082;15.524;2023-12-20T04:37:33;96210.88;;;19.10;40.54
83551;BME280;74617;47.082;15.524;2023-12-20T04:39:59;96207.34;;;19.10;40.51
83551;BME280;74617;47.082;15.524;2023-12-20T04:42:25;96203.47;;;19.11;40.54
83551;BME280;74617;47.082;15.524;2023-12-20T04:44:51;96193.38;;;19.11;40.53
83551;BME280;74617;47.082;15.524;2023-12-20T04:47:16;96198.47;;;19.13;40.53
83551;BME280;74617;47.082;15.524;2023-12-20T04:49:41;96196.53;;;19.13;41.05
83551;BME280;74617;47.082;15.524;2023-12-20T04:52:07;96197.03;;;19.16;41.15
83551;BME280;74617;47.082;15.524;2023-12-20T04:54:32;96190.44;;;19.17;41.11
83551;BME280;74617;47.082;15.524;2023-12-20T04:56:57;96194.28;;;19.16;41.00
83551;BME280;74617;47.082;15.524;2023-12-20T04:59:23;96199.41;;;19.17;41.32
83551;BME280;74617;47.082;15.524;2023-12-20T05:02:36;96199.47;;;19.21;41.19
83551;BME280;74617;47.082;15.524;2023-12-20T05:05:01;96204.59;;;19.22;41.28
83551;BME280;74617;47.082;15.524;2023-12-20T05:07:28;96207.66;;;19.21;41.45
83551;BME280;74617;47.082;15.524;2023-12-20T05:09:53;96208.44;;;19.21;41.45
83551;BME280;74617;47.082;15.524;2023-12-20T05:12:19;96212.00;;;19.22;41.40
83551;BME280;74617;47.082;15.524;2023-12-20T05:14:45;96206.06;;;19.20;41.64
83551;BME280;74617;47.082;15.524;2023-12-20T05:17:11;96204.94;;;19.21;41.83
83551;BME280;74617;47.082;15.524;2023-12-20T05:19:36;96207.66;;;19.21;41.59
83551;BME280;74617;47.082;15.524;2023-12-20T05:22:02;96199.47;;;19.21;41.69
83551;BME280;74617;47.082;15.524;2023-12-20T05:24:27;96188.59;;;19.21;42.05
83551;BME280;74617;47.082;15.524;2023-12-20T05:26:53;96198.38;;;19.22;42.23
83551;BME280;74617;47.082;15.524;2023-12-20T05:29:19;96190.28;;;19.25;42.06
83551;BME280;74617;47.082;15.524;2023-12-20T05:31:44;96188.78;;;19.28;42.46
83551;BME280;74617;47.082;15.524;2023-12-20T05:34:09;96190.84;;;19.31;42.38
83551;BME280;74617;47.082;15.524;2023-12-20T05:36:36;96190.50;;;19.32;43.03
83551;BME280;74617;47.082;15.524;2023-12-20T05:39:01;96191.28;;;19.33;43.01
83551;BME280;74617;47.082;15.524;2023-12-20T05:41:28;96191.72;;;19.35;42.89
83551;BME280;74617;47.082;15.524;2023-12-20T05:43:54;96197.66;;;19.37;42.90
83551;BME280;74617;47.082;15.524;2023-12-20T05:46:19;96186.75;;;19.37;43.10
83551;BME280;74617;47.082;15.524;2023-12-20T05:48:46;96188.34;;;19.38;43.16
83551;BME280;74617;47.082;15.524;2023-12-20T05:51:12;96188.78;;;19.40;42.91
83551;BME280;74617;47.082;15.524;2023-12-20T05:53:38;96181.03;;;19.42;43.19
83551;BME280;74617;47.082;15.524;2023-12-20T05:56:04;96185.38;;;19.43;43.35
83551;BME280;74617;47.082;15.524;2023-12-20T05:58:29;96189.69;;;19.44;42.81
83551;BME280;74617;47.082;15.524;2023-12-20T06:00:55;96200.56;;;19.44;43.21
83551;BME280;74617;47.082;15.524;2023-12-20T06:03:20;96211.47;;;19.44;42.85
83551;BME280;74617;47.082;15.524;2023-12-20T06:05:45;96218.16;;;19.47;43.20
83551;BME280;74617;47.082;15.524;2023-12-20T06:08:11;96224.41;;;19.47;42.96
83551;BME280;74617;47.082;15.524;2023-12-20T06:10:36;96217.47;;;19.50;43.46
83551;BME280;74617;47.082;15.524;2023-12-20T06:13:02;96213.16;;;19.49;43.19
83551;BME280;74617;47.082;15.524;2023-12-20T06:15:29;96205.44;;;19.51;42.77
83551;BME280;74617;47.082;15.524;2023-12-20T06:17:55;96204.44;;;19.43;41.10
83551;BME280;74617;47.082;15.524;2023-12-20T06:20:21;96209.91;;;19.31;39.27
83551;BME280;74617;47.082;15.524;2023-12-20T06:22:46;96210.16;;;19.26;40.92
83551;BME280;74617;47.082;15.524;2023-12-20T06:25:12;96213.44;;;19.31;41.56
83551;BME280;74617;47.082;15.524;2023-12-20T06:27:37;96209.22;;;19.34;41.69
83551;BME280;74617;47.082;15.524;2023-12-20T06:30:03;96208.06;;;19.35;41.45
83551;BME280;74617;47.082;15.524;2023-12-20T06:32:28;96204.25;;;19.36;41.35
83551;BME280;74617;47.082;15.524;2023-12-20T06:34:54;96202.31;;;19.36;41.12
83551;BME280;74617;47.082;15.524;2023-12-20T06:37:22;96204.69;;;19.38;41.35
83551;BME280;74617;47.082;15.524;2023-12-20T06:39:47;96207.06;;;19.39;41.38
83551;BME280;74617;47.082;15.524;2023-12-20T06:42:13;96211.34;;;19.40;41.32
83551;BME280;74617;47.082;15.524;2023-12-20T06:44:38;96201.25;;;19.41;41.49
83551;BME280;74617;47.082;15.524;2023-12-20T06:47:04;96205.56;;;19.42;41.37
83551;BME280;74617;47.082;15.524;2023-12-20T06:49:29;96205.22;;;19.44;41.43
83551;BME280;74617;47.082;15.524;2023-12-20T06:51:55;96209.91;;;19.43;41.21
83551;BME280;74617;47.082;15.524;2023-12-20T06:54:20;96215.34;;;19.43;41.29
83551;BME280;74617;47.082;15.524;2023-12-20T06:56:46;96218.50;;;19.45;41.06
83551;BME280;74617;47.082;15.524;2023-12-20T06:59:11;96209.78;;;19.39;40.55
83551;BME280;74617;47.082;15.524;2023-12-20T07:01:37;96220.03;;;19.30;39.01
83551;BME280;74617;47.082;15.524;2023-12-20T07:04:03;96222.19;;;19.25;38.12
83551;BME280;74617;47.082;15.524;2023-12-20T07:06:28;96215.81;;;19.21;37.68
83551;BME280;74617;47.082;15.524;2023-12-20T07:08:53;96222.75;;;19.18;38.60
83551;BME280;74617;47.082;15.524;2023-12-20T07:11:19;96225.69;;;19.25;38.73
83551;BME280;74617;47.082;15.524;2023-12-20T07:13:44;96242.97;;;19.29;39.71
83551;BME280;74617;47.082;15.524;2023-12-20T07:16:10;96249.19;;;19.30;39.73
83551;BME280;74617;47.082;15.524;2023-12-20T07:18:35;96249.63;;;19.32;39.35
83551;BME280;74617;47.082;15.524;2023-12-20T07:21:00;96260.97;;;19.34;39.64
83551;BME280;74617;47.082;15.524;2023-12-20T07:23:26;96259.16;;;19.38;39.64
83551;BME280;74617;47.082;15.524;2023-12-20T07:25:51;96261.19;;;19.41;39.93
83551;BME280;74617;47.082;15.524;2023-12-20T07:28:17;96261.31;;;19.45;39.81
83551;BME280;74617;47.082;15.524;2023-12-20T07:30:44;96257.09;;;19.47;39.85
83551;BME280;74617;47.082;15.524;2023-12-20T07:33:09;96267.63;;;19.49;40.19
83551;BME280;74617;47.082;15.524;2023-12-20T07:35:34;96270.84;;;19.51;40.35
83551;BME280;74617;47.082;15.524;2023-12-20T07:38:01;96274.78;;;19.53;40.50
83551;BME280;74617;47.082;15.524;2023-12-20T07:40:27;96281.97;;;19.58;40.95
83551;BME280;74617;47.082;15.524;2023-12-20T07:42:52;96284.69;;;19.58;41.02
83551;BME280;74617;47.082;15.524;2023-12-20T07:45:18;96287.75;;;19.56;41.08
83551;BME280;74617;47.082;15.524;2023-12-20T07:47:43;96282.28;;;19.56;41.15
83551;BME280;74617;47.082;15.524;2023-12-20T07:50:09;96289.69;;;19.56;41.46
83551;BME280;74617;47.082;15.524;2023-12-20T07:52:35;96286.97;;;19.56;41.41
83551;BME280;74617;47.082;15.524;2023-12-20T07:55:00;96294.00;;;19.57;41.25
83551;BME280;74617;47.082;15.524;2023-12-20T07:57:29;96296.72;;;19.57;41.55
83551;BME280;74617;47.082;15.524;2023-12-20T07:59:54;96295.59;;;19.58;41.58
83551;BME280;74617;47.082;15.524;2023-12-20T08:02:20;96300.69;;;19.59;41.63
83551;BME280;74617;47.082;15.524;2023-12-20T08:04:45;96313.19;;;19.60;41.84
83551;BME280;74617;47.082;15.524;2023-12-20T08:07:10;96315.91;;;19.60;41.67
83551;BME280;74617;47.082;15.524;2023-12-20T08:09:36;96313.97;;;19.61;41.57
83551;BME280;74617;47.082;15.524;2023-12-20T08:12:02;96321.81;;;19.62;41.60
83551;BME280;74617;47.082;15.524;2023-12-20T08:14:27;96318.63;;;19.60;41.53
83551;BME280;74617;47.082;15.524;2023-12-20T08:16:52;96314.78;;;19.61;42.05
83551;BME280;74617;47.082;15.524;2023-12-20T08:19:18;96321.00;;;19.62;41.81
83551;BME280;74617;47.082;15.524;2023-12-20T08:21:43;96321.81;;;19.62;41.71
83551;BME280;74617;47.082;15.524;2023-12-20T08:24:08;96316.34;;;19.62;41.82
83551;BME280;74617;47.082;15.524;2023-12-20T08:26:34;96317.19;;;19.63;41.92
83551;BME280;74617;47.082;15.524;2023-12-20T08:28:59;96318.75;;;19.64;41.91
83551;BME280;74617;47.082;15.524;2023-12-20T08:31:25;96322.28;;;19.64;41.81
83551;BME280;74617;47.082;15.524;2023-12-20T08:33:51;96323.84;;;19.65;41.80
83551;BME280;74617;47.082;15.524;2023-12-20T08:36:19;96323.84;;;19.65;41.82
83551;BME280;74617;47.082;15.524;2023-12-20T08:38:46;96325.00;;;19.64;41.78
83551;BME280;74617;47.082;15.524;2023-12-20T08:41:12;96318.41;;;19.65;41.88
83551;BME280;74617;47.082;15.524;2023-12-20T08:43:38;96318.41;;;19.65;41.67
83551;BME280;74617;47.082;15.524;2023-12-20T08:46:05;96321.94;;;19.66;41.95
83551;BME280;74617;47.082;15.524;2023-12-20T08:48:30;96317.25;;;19.66;42.01
83551;BME280;74617;47.082;15.524;2023-12-20T08:50:56;96316.13;;;19.67;41.99
83551;BME280;74617;47.082;15.524;2023-12-20T08:53:22;96321.56;;;19.67;41.58
83551;BME280;74617;47.082;15.524;2023-12-20T08:55:47;96331.34;;;19.68;41.92
83551;BME280;74617;47.082;15.524;2023-12-20T08:58:13;96326.69;;;19.69;41.55
83551;BME280;74617;47.082;15.524;2023-12-20T09:00:39;96328.59;;;19.68;41.69
83551;BME280;74617;47.082;15.524;2023-12-20T09:03:05;96332.94;;;19.70;42.02
83551;BME280;74617;47.082;15.524;2023-12-20T09:05:30;96331.00;;;19.70;41.79
83551;BME280;74617;47.082;15.524;2023-12-20T09:07:56;96334.53;;;19.71;42.02
83551;BME280;74617;47.082;15.524;2023-12-20T09:10:21;96334.53;;;19.71;42.02
83551;BME280;74617;47.082;15.524;2023-12-20T09:12:50;96339.19;;;19.70;41.68
83551;BME280;74617;47.082;15.524;2023-12-20T09:15:16;96332.94;;;19.70;41.99
83551;BME280;74617;47.082;15.524;2023-12-20T09:17:42;96330.66;;;19.72;41.89
83551;BME280;74617;47.082;15.524;2023-12-20T09:20:09;96324.41;;;19.71;41.82
83551;BME280;74617;47.082;15.524;2023-12-20T09:22:35;96319.41;;;19.73;41.80
83551;BME280;74617;47.082;15.524;2023-12-20T09:25:00;96299.53;;;19.73;41.89
83551;BME280;74617;47.082;15.524;2023-12-20T09:27:27;96310.44;;;19.73;41.65
83551;BME280;74617;47.082;15.524;2023-12-20T09:29:53;96312.03;;;19.74;41.56
83551;BME280;74617;47.082;15.524;2023-12-20T09:32:18;96309.31;;;19.74;41.53
83551;BME280;74617;47.082;15.524;2023-12-20T09:34:45;96312.03;;;19.74;41.58
83551;BME280;74617;47.082;15.524;2023-12-20T09:37:11;96318.28;;;19.74;41.69
83551;BME280;74617;47.082;15.524;2023-12-20T09:39:36;96319.06;;;19.75;41.56
83551;BME280;74617;47.082;15.524;2023-12-20T09:42:03;96319.84;;;19.75;41.58
83551;BME280;74617;47.082;15.524;2023-12-20T09:44:30;96320.66;;;19.76;41.70
83551;BME280;74617;47.082;15.524;2023-12-20T09:46:56;96318.38;;;19.78;41.64
83551;BME280;74617;47.082;15.524;2023-12-20T09:49:22;96323.03;;;19.77;41.67
83551;BME280;74617;47.082;15.524;2023-12-20T09:51:50;96328.94;;;19.79;41.94
83551;BME280;74617;47.082;15.524;2023-12-20T09:54:17;96326.22;;;19.79;41.59
83551;BME280;74617;47.082;15.524;2023-12-20T09:56:44;96316.09;;;19.80;41.74
83551;BME280;74617;47.082;15.524;2023-12-20T09:59:09;96307.94;;;19.80;41.59
83551;BME280;74617;47.082;15.524;2023-12-20T10:01:35;96298.97;;;19.79;41.55
83551;BME280;74617;47.082;15.524;2023-12-20T10:04:05;96300.53;;;19.80;41.59
83551;BME280;74617;47.082;15.524;2023-12-20T10:06:36;96299.75;;;19.80;41.51
83551;BME280;74617;47.082;15.524;2023-12-20T10:09:01;96289.97;;;19.79;41.74
83551;BME280;74617;47.082;15.524;2023-12-20T10:11:27;96290.44;;;19.81;41.61
83551;BME280;74617;47.082;15.524;2023-12-20T10:13:59;96285.75;;;19.81;41.54
83551;BME280;74617;47.082;15.524;2023-12-20T10:16:25;96288.97;;;19.83;41.63
83551;BME280;74617;47.082;15.524;2023-12-20T10:18:55;96296.78;;;19.85;41.57
83551;BME280;74617;47.082;15.524;2023-12-20T10:21:22;96294.06;;;19.85;41.81
83551;BME280;74617;47.082;15.524;2023-12-20T10:23:48;96290.19;;;19.86;41.61
83551;BME280;74617;47.082;15.524;2023-12-20T10:26:25;96286.66;;;19.85;41.67
83551;BME280;74617;47.082;15.524;2023-12-20T10:28:53;96283.59;;;19.87;41.57
83551;BME280;74617;47.082;15.524;2023-12-20T10:33:59;96279.28;;;19.86;41.41
83551;BME280;74617;47.082;15.524;2023-12-20T10:36:29;96277.69;;;19.85;41.54
83551;BME280;74617;47.082;15.524;2023-12-20T10:38:56;96275.78;;;19.85;41.61
83551;BME280;74617;47.082;15.524;2023-12-20T10:43:56;96284.31;;;19.84;41.64
83551;BME280;74617;47.082;15.524;2023-12-20T10:46:23;96287.03;;;19.84;41.31
83551;BME280;74617;47.082;15.524;2023-12-20T10:48:53;96276.13;;;19.84;41.38
83551;BME280;74617;47.082;15.524;2023-12-20T10:51:20;96268.72;;;19.84;41.46
83551;BME280;74617;47.082;15.524;2023-12-20T10:53:49;96274.63;;;19.86;41.47
83551;BME280;74617;47.082;15.524;2023-12-20T10:56:17;96276.31;;;19.91;41.45
83551;BME280;74617;47.082;15.524;2023-12-20T10:58:51;96272.81;;;19.90;41.36
83551;BME280;74617;47.082;15.524;2023-12-20T11:01:18;96271.75;;;19.95;41.86
83551;BME280;74617;47.082;15.524;2023-12-20T11:03:52;96270.50;;;19.92;41.78
83551;BME280;74617;47.082;15.524;2023-12-20T11:11:32;96264.34;;;19.95;41.72
83551;BME280;74617;47.082;15.524;2023-12-20T11:14:07;96254.72;;;19.98;42.02
83551;BME280;74617;47.082;15.524;2023-12-20T11:16:37;96269.91;;;19.99;41.85
83551;BME280;74617;47.082;15.524;2023-12-20T11:19:06;96259.44;;;20.01;41.71
83551;BME280;74617;47.082;15.524;2023-12-20T11:21:32;96256.72;;;20.01;41.83
83551;BME280;74617;47.082;15.524;2023-12-20T11:23:57;96261.38;;;20.01;42.08
83551;BME280;74617;47.082;15.524;2023-12-20T11:26:27;96258.31;;;20.02;41.55
83551;BME280;74617;47.082;15.524;2023-12-20T11:28:53;96253.66;;;20.03;41.96
83551;BME280;74617;47.082;15.524;2023-12-20T11:31:19;96257.94;;;20.04;41.87
83551;BME280;74617;47.082;15.524;2023-12-20T11:33:45;96259.88;;;20.03;41.66
83551;BME280;74617;47.082;15.524;2023-12-20T11:36:15;96257.16;;;20.03;41.56
83551;BME280;74617;47.082;15.524;2023-12-20T11:38:58;96256.84;;;20.05;41.92
83551;BME280;74617;47.082;15.524;2023-12-20T11:41:25;96245.56;;;20.06;41.71
83551;BME280;74617;47.082;15.524;2023-12-20T11:43:55;96249.09;;;20.07;41.53
83551;BME280;74617;47.082;15.524;2023-12-20T11:46:21;96249.88;;;20.07;41.70
83551;BME280;74617;47.082;15.524;2023-12-20T11:48:47;96246.81;;;20.09;41.74
83551;BME280;74617;47.082;15.524;2023-12-20T11:51:13;96246.44;;;20.10;41.24
83551;BME280;74617;47.082;15.524;2023-12-20T11:53:40;96228.19;;;20.11;41.65
83551;BME280;74617;47.082;15.524;2023-12-20T11:56:07;96230.91;;;20.11;41.88
83551;BME280;74617;47.082;15.524;2023-12-20T11:58:34;96224.75;;;20.14;41.83
83551;BME280;74617;47.082;15.524;2023-12-20T12:00:59;96222.00;;;20.14;41.74
83551;BME280;74617;47.082;15.524;2023-12-20T12:03:25;96223.94;;;20.13;41.76
83551;BME280;74617;47.082;15.524;2023-12-20T12:05:52;96220.50;;;20.16;41.73
83551;BME280;74617;47.082;15.524;2023-12-20T12:08:17;96227.53;;;20.17;41.61
83551;BME280;74617;47.082;15.524;2023-12-20T12:10:44;96215.84;;;20.17;41.90
83551;BME280;74617;47.082;15.524;2023-12-20T12:13:09;96217.47;;;20.18;41.56
83551;BME280;74617;47.082;15.524;2023-12-20T12:15:36;96216.63;;;20.17;41.56
83551;BME280;74617;47.082;15.524;2023-12-20T12:18:02;96209.59;;;20.16;41.65
83551;BME280;74617;47.082;15.524;2023-12-20T12:20:27;96205.72;;;20.17;41.74
83551;BME280;74617;47.082;15.524;2023-12-20T12:23:05;96194.50;;;20.19;41.75
83551;BME280;74617;47.082;15.524;2023-12-20T12:25:32;96210.94;;;20.22;42.35
83551;BME280;74617;47.082;15.524;2023-12-20T12:28:00;96206.72;;;20.25;42.06
83551;BME280;74617;47.082;15.524;2023-12-20T12:30:25;96210.94;;;20.22;42.03
83551;BME280;74617;47.082;15.524;2023-12-20T12:32:52;96210.94;;;20.22;41.84
83551;BME280;74617;47.082;15.524;2023-12-20T12:35:18;96206.63;;;20.21;41.60
83551;BME280;74617;47.082;15.524;2023-12-20T12:37:44;96210.94;;;20.22;41.75
83551;BME280;74617;47.082;15.524;2023-12-20T12:40:10;96214.44;;;20.23;42.03
83551;BME280;74617;47.082;15.524;2023-12-20T12:42:40;96216.03;;;20.24;41.54
83551;BME280;74617;47.082;15.524;2023-12-20T12:45:06;96205.13;;;20.24;41.95
83551;BME280;74617;47.082;15.524;2023-12-20T12:47:31;96190.34;;;20.25;41.84
83551;BME280;74617;47.082;15.524;2023-12-20T12:49:57;96191.47;;;20.24;41.65
83551;BME280;74617;47.082;15.524;2023-12-20T12:52:22;96200.47;;;20.25;41.94
83551;BME280;74617;47.082;15.524;2023-12-20T12:54:48;96206.72;;;20.25;41.74